sensor_id;sensor_type;location;lat;lon;timestamp;pressure;altitude;pressure_sealevel;temperature;humidity
32081;BME280;18593;51.426;7.030;2023-01-04T00:01:12;101129.75;;;9.32;60.20
32081;BME280;18593;51.426;7.030;2023-01-04T00:03:41;101125.84;;;9.27;59.91
32081;BME280;18593;51.426;7.030;2023-01-04T00:06:11;101119.09;;;9.32;60.71
32081;BME280;18593;51.426;7.030;2023-01-04T00:08:39;101126.09;;;9.33;60.74
32081;BME280;18593;51.426;7.030;2023-01-04T00:11:10;101116.72;;;9.37;60.85
32081;BME280;18593;51.426;7.030;2023-01-04T00:13:39;101102.22;;;9.39;60.35
32081;BME280;18593;51.426;7.030;2023-01-04T00:16:10;101100.13;;;9.35;60.09
32081;BME280;18593;51.426;7.030;2023-01-04T00:18:38;101095.25;;;9.38;60.10
32081;BME280;18593;51.426;7.030;2023-01-04T00:21:07;101087.63;;;9.35;60.36
32081;BME280;18593;51.426;7.030;2023-01-04T00:23:37;101086.34;;;9.31;60.65
32081;BME280;18593;51.426;7.030;2023-01-04T00:26:08;101084.50;;;9.32;60.29
32081;BME280;18593;51.426;7.030;2023-01-04T00:28:36;101084.75;;;9.37;60.12
32081;BME280;18593;51.426;7.030;2023-01-04T00:31:07;101074.13;;;9.37;60.11
32081;BME280;18593;51.426;7.030;2023-01-04T00:33:35;101070.63;;;9.36;60.30
32081;BME280;18593;51.426;7.030;2023-01-04T00:36:05;101057.53;;;9.35;60.24
32081;BME280;18593;51.426;7.030;2023-01-04T00:41:00;101052.19;;;9.35;60.60
32081;BME280;18593;51.426;7.030;2023-01-04T00:43:28;101060.81;;;9.37;60.73
32081;BME280;18593;51.426;7.030;2023-01-04T00:45:55;101048.59;;;9.42;60.72
32081;BME280;18593;51.426;7.030;2023-01-04T00:48:24;101041.59;;;9.41;61.07
32081;BME280;18593;51.426;7.030;2023-01-04T00:50:51;101038.78;;;9.43;61.39
32081;BME280;18593;51.426;7.030;2023-01-04T00:53:18;101032.44;;;9.44;62.03
32081;BME280;18593;51.426;7.030;2023-01-04T00:55:45;101037.75;;;9.44;62.16
32081;BME280;18593;51.426;7.030;2023-01-04T00:58:13;101028.56;;;9.46;62.42
32081;BME280;18593;51.426;7.030;2023-01-04T01:00:40;101023.63;;;9.43;62.57
32081;BME280;18593;51.426;7.030;2023-01-04T01:03:07;101022.81;;;9.43;62.98
32081;BME280;18593;51.426;7.030;2023-01-04T01:05:36;101013.28;;;9.34;63.37
32081;BME280;18593;51.426;7.030;2023-01-04T01:08:04;101009.00;;;9.33;63.79
32081;BME280;18593;51.426;7.030;2023-01-04T01:10:45;100993.28;;;9.38;63.86
32081;BME280;18593;51.426;7.030;2023-01-04T01:13:12;100989.78;;;9.37;64.16
32081;BME280;18593;51.426;7.030;2023-01-04T01:15:39;100990.16;;;9.34;64.53
32081;BME280;18593;51.426;7.030;2023-01-04T01:18:06;100985.09;;;9.39;64.82
32081;BME280;18593;51.426;7.030;2023-01-04T01:20:40;100989.34;;;9.34;65.16
32081;BME280;18593;51.426;7.030;2023-01-04T01:23:10;100976.59;;;9.29;65.97
32081;BME280;18593;51.426;7.030;2023-01-04T01:25:38;100986.22;;;9.30;65.60
32081;BME280;18593;51.426;7.030;2023-01-04T01:28:05;100980.31;;;9.35;65.64
32081;BME280;18593;51.426;7.030;2023-01-04T01:30:33;100960.09;;;9.40;65.40
32081;BME280;18593;51.426;7.030;2023-01-04T01:33:00;100968.75;;;9.42;65.65
32081;BME280;18593;51.426;7.030;2023-01-04T01:35:27;100959.28;;;9.40;65.93
32081;BME280;18593;51.426;7.030;2023-01-04T01:37:56;100954.97;;;9.39;66.21
32081;BME280;18593;51.426;7.030;2023-01-04T01:40:23;100951.50;;;9.38;66.20
32081;BME280;18593;51.426;7.030;2023-01-04T01:42:50;100950.47;;;9.39;66.20
32081;BME280;18593;51.426;7.030;2023-01-04T01:45:30;100944.94;;;9.41;66.43
32081;BME280;18593;51.426;7.030;2023-01-04T01:48:04;100939.63;;;9.41;66.22
32081;BME280;18593;51.426;7.030;2023-01-04T01:50:37;100947.63;;;9.41;66.42
32081;BME280;18593;51.426;7.030;2023-01-04T01:53:08;100940.66;;;9.40;66.48
32081;BME280;18593;51.426;7.030;2023-01-04T01:55:36;100950.28;;;9.41;66.59
32081;BME280;18593;51.426;7.030;2023-01-04T01:58:06;100940.44;;;9.41;66.86
32081;BME280;18593;51.426;7.030;2023-01-04T02:00:35;100935.94;;;9.42;66.49
32081;BME280;18593;51.426;7.030;2023-01-04T02:03:12;100946.03;;;9.46;67.00
32081;BME280;18593;51.426;7.030;2023-01-04T02:05:43;100940.03;;;9.38;67.26
32081;BME280;18593;51.426;7.030;2023-01-04T02:08:12;100935.53;;;9.38;67.34
32081;BME280;18593;51.426;7.030;2023-01-04T02:10:40;100942.81;;;9.29;68.00
32081;BME280;18593;51.426;7.030;2023-01-04T02:13:10;100937.53;;;9.36;67.81
32081;BME280;18593;51.426;7.030;2023-01-04T02:15:50;100942.50;;;9.39;68.05
32081;BME280;18593;51.426;7.030;2023-01-04T02:18:28;100928.97;;;9.41;68.06
32081;BME280;18593;51.426;7.030;2023-01-04T02:21:02;100934.13;;;9.42;68.13
32081;BME280;18593;51.426;7.030;2023-01-04T02:24:32;100928.72;;;9.36;68.66
32081;BME280;18593;51.426;7.030;2023-01-04T02:27:47;100923.38;;;9.29;69.08
32081;BME280;18593;51.426;7.030;2023-01-04T02:31:06;100910.88;;;9.29;69.30
32081;BME280;18593;51.426;7.030;2023-01-04T02:33:48;100920.91;;;9.27;69.32
32081;BME280;18593;51.426;7.030;2023-01-04T02:36:24;100916.81;;;9.32;69.33
32081;BME280;18593;51.426;7.030;2023-01-04T02:39:07;100913.97;;;9.33;69.27
32081;BME280;18593;51.426;7.030;2023-01-04T02:41:43;100905.09;;;9.26;69.82
32081;BME280;18593;51.426;7.030;2023-01-04T02:44:16;100895.28;;;9.26;69.69
32081;BME280;18593;51.426;7.030;2023-01-04T02:47:07;100892.44;;;9.28;69.93
32081;BME280;18593;51.426;7.030;2023-01-04T02:49:41;100887.16;;;9.35;69.61
32081;BME280;18593;51.426;7.030;2023-01-04T02:52:26;100882.66;;;9.35;69.75
32081;BME280;18593;51.426;7.030;2023-01-04T02:54:55;100891.28;;;9.37;69.85
32081;BME280;18593;51.426;7.030;2023-01-04T02:57:41;100898.84;;;9.34;69.99
32081;BME280;18593;51.426;7.030;2023-01-04T03:00:44;100882.63;;;9.28;70.27
32081;BME280;18593;51.426;7.030;2023-01-04T03:03:35;100875.66;;;9.27;70.62
32081;BME280;18593;51.426;7.030;2023-01-04T03:06:33;100873.00;;;9.27;70.84
32081;BME280;18593;51.426;7.030;2023-01-04T03:09:07;100879.19;;;9.35;70.53
32081;BME280;18593;51.426;7.030;2023-01-04T03:11:46;100881.25;;;9.39;70.28
32081;BME280;18593;51.426;7.030;2023-01-04T03:14:32;100866.13;;;9.40;70.37
32081;BME280;18593;51.426;7.030;2023-01-04T03:17:06;100866.72;;;9.42;70.44
32081;BME280;18593;51.426;7.030;2023-01-04T03:19:37;100864.28;;;9.40;70.84
32081;BME280;18593;51.426;7.030;2023-01-04T03:22:26;100850.75;;;9.42;70.46
32081;BME280;18593;51.426;7.030;2023-01-04T03:25:13;100854.88;;;9.44;70.50
32081;BME280;18593;51.426;7.030;2023-01-04T03:27:59;100854.88;;;9.44;70.51
32081;BME280;18593;51.426;7.030;2023-01-04T03:30:52;100844.84;;;9.46;70.33
32081;BME280;18593;51.426;7.030;2023-01-04T03:33:40;100837.06;;;9.45;70.52
32081;BME280;18593;51.426;7.030;2023-01-04T03:36:59;100829.09;;;9.45;70.61
32081;BME280;18593;51.426;7.030;2023-01-04T03:39:43;100830.72;;;9.46;70.39
32081;BME280;18593;51.426;7.030;2023-01-04T03:42:41;100822.56;;;9.47;70.83
32081;BME280;18593;51.426;7.030;2023-01-04T03:45:32;100830.34;;;9.49;70.28
32081;BME280;18593;51.426;7.030;2023-01-04T03:48:22;100832.63;;;9.52;70.63
32081;BME280;18593;51.426;7.030;2023-01-04T03:51:02;100836.09;;;9.52;70.70
32081;BME280;18593;51.426;7.030;2023-01-04T03:53:34;100827.09;;;9.53;70.60
32081;BME280;18593;51.426;7.030;2023-01-04T03:56:07;100818.28;;;9.53;70.56
32081;BME280;18593;51.426;7.030;2023-01-04T03:58:39;100815.19;;;9.49;70.75
32081;BME280;18593;51.426;7.030;2023-01-04T04:01:06;100814.81;;;9.52;70.85
32081;BME280;18593;51.426;7.030;2023-01-04T04:03:33;100794.31;;;9.53;70.88
32081;BME280;18593;51.426;7.030;2023-01-04T04:06:18;100809.06;;;9.55;70.84
32081;BME280;18593;51.426;7.030;2023-01-04T04:09:06;100799.69;;;9.60;70.79
32081;BME280;18593;51.426;7.030;2023-01-04T04:11:34;100799.28;;;9.63;70.50
32081;BME280;18593;51.426;7.030;2023-01-04T04:14:01;100802.97;;;9.62;70.83
32081;BME280;18593;51.426;7.030;2023-01-04T04:16:28;100788.44;;;9.64;70.58
32081;BME280;18593;51.426;7.030;2023-01-04T04:18:55;100787.00;;;9.62;70.85
32081;BME280;18593;51.426;7.030;2023-01-04T04:21:22;100771.84;;;9.62;70.80
32081;BME280;18593;51.426;7.030;2023-01-04T04:23:49;100786.16;;;9.61;70.90
32081;BME280;18593;51.426;7.030;2023-01-04T04:26:18;100779.44;;;9.65;70.81
32081;BME280;18593;51.426;7.030;2023-01-04T04:28:45;100775.13;;;9.64;70.86
32081;BME280;18593;51.426;7.030;2023-01-04T04:31:12;100773.72;;;9.68;70.75
32081;BME280;18593;51.426;7.030;2023-01-04T04:33:39;100775.34;;;9.69;70.94
32081;BME280;18593;51.426;7.030;2023-01-04T04:36:08;100767.78;;;9.66;70.94
32081;BME280;18593;51.426;7.030;2023-01-04T04:38:35;100763.28;;;9.67;71.04
32081;BME280;18593;51.426;7.030;2023-01-04T04:41:07;100762.84;;;9.70;70.83
32081;BME280;18593;51.426;7.030;2023-01-04T04:43:53;100759.16;;;9.64;71.47
32081;BME280;18593;51.426;7.030;2023-01-04T04:46:21;100745.25;;;9.69;71.41
32081;BME280;18593;51.426;7.030;2023-01-04T04:48:48;100745.22;;;9.62;71.91
32081;BME280;18593;51.426;7.030;2023-01-04T04:51:16;100745.16;;;9.55;72.44
32081;BME280;18593;51.426;7.030;2023-01-04T04:53:43;100747.25;;;9.60;72.34
32081;BME280;18593;51.426;7.030;2023-01-04T04:56:11;100743.38;;;9.63;72.22
32081;BME280;18593;51.426;7.030;2023-01-04T04:58:38;100740.28;;;9.66;72.40
32081;BME280;18593;51.426;7.030;2023-01-04T05:01:07;100742.97;;;9.66;72.41
32081;BME280;18593;51.426;7.030;2023-01-04T05:03:35;100721.47;;;9.67;72.40
32081;BME280;18593;51.426;7.030;2023-01-04T05:06:03;100724.13;;;9.67;72.49
32081;BME280;18593;51.426;7.030;2023-01-04T05:08:30;100711.84;;;9.66;72.64
32081;BME280;18593;51.426;7.030;2023-01-04T05:10:57;100720.66;;;9.67;72.77
32081;BME280;18593;51.426;7.030;2023-01-04T05:13:24;100729.06;;;9.70;72.93
32081;BME280;18593;51.426;7.030;2023-01-04T05:15:52;100712.25;;;9.70;73.22
32081;BME280;18593;51.426;7.030;2023-01-04T05:18:21;100712.47;;;9.68;73.48
32081;BME280;18593;51.426;7.030;2023-01-04T05:20:49;100714.09;;;9.69;73.56
32081;BME280;18593;51.426;7.030;2023-01-04T05:23:19;100707.56;;;9.72;73.85
32081;BME280;18593;51.426;7.030;2023-01-04T05:25:50;100701.00;;;9.74;74.01
32081;BME280;18593;51.426;7.030;2023-01-04T05:28:19;100686.66;;;9.75;74.10
32081;BME280;18593;51.426;7.030;2023-01-04T05:30:48;100686.47;;;9.77;74.19
32081;BME280;18593;51.426;7.030;2023-01-04T05:33:22;100678.88;;;9.74;74.34
32081;BME280;18593;51.426;7.030;2023-01-04T05:35:50;100686.28;;;9.78;74.32
32081;BME280;18593;51.426;7.030;2023-01-04T05:38:18;100686.28;;;9.78;74.24
32081;BME280;18593;51.426;7.030;2023-01-04T05:40:45;100684.22;;;9.80;74.24
32081;BME280;18593;51.426;7.030;2023-01-04T05:43:13;100686.06;;;9.80;74.44
32081;BME280;18593;51.426;7.030;2023-01-04T05:45:42;100693.88;;;9.82;74.30
32081;BME280;18593;51.426;7.030;2023-01-04T05:48:09;100685.88;;;9.82;74.59
32081;BME280;18593;51.426;7.030;2023-01-04T05:50:38;100690.19;;;9.83;74.42
32081;BME280;18593;51.426;7.030;2023-01-04T05:53:09;100670.72;;;9.82;74.44
32081;BME280;18593;51.426;7.030;2023-01-04T05:55:36;100666.00;;;9.84;74.61
32081;BME280;18593;51.426;7.030;2023-01-04T05:58:04;100669.28;;;9.86;74.40
32081;BME280;18593;51.426;7.030;2023-01-04T06:00:31;100667.25;;;9.88;74.28
32081;BME280;18593;51.426;7.030;2023-01-04T06:02:59;100661.69;;;9.90;74.58
32081;BME280;18593;51.426;7.030;2023-01-04T06:05:26;100658.03;;;9.91;74.44
32081;BME280;18593;51.426;7.030;2023-01-04T06:07:55;100664.56;;;9.95;74.34
32081;BME280;18593;51.426;7.030;2023-01-04T06:10:22;100658.03;;;9.97;74.42
32081;BME280;18593;51.426;7.030;2023-01-04T06:12:49;100664.59;;;10.01;74.15
32081;BME280;18593;51.426;7.030;2023-01-04T06:15:17;100652.09;;;10.02;74.00
32081;BME280;18593;51.426;7.030;2023-01-04T06:17:44;100653.13;;;10.01;73.84
32081;BME280;18593;51.426;7.030;2023-01-04T06:20:11;100644.09;;;10.02;74.07
32081;BME280;18593;51.426;7.030;2023-01-04T06:22:39;100642.06;;;10.04;74.00
32081;BME280;18593;51.426;7.030;2023-01-04T06:25:09;100637.34;;;10.06;73.87
32081;BME280;18593;51.426;7.030;2023-01-04T06:27:36;100641.44;;;10.09;73.74
32081;BME280;18593;51.426;7.030;2023-01-04T06:30:05;100636.94;;;10.09;73.87
32081;BME280;18593;51.426;7.030;2023-01-04T06:32:32;100633.88;;;10.12;73.87
32081;BME280;18593;51.426;7.030;2023-01-04T06:35:00;100635.50;;;10.13;73.73
32081;BME280;18593;51.426;7.030;2023-01-04T06:37:33;100619.50;;;10.13;73.84
32081;BME280;18593;51.426;7.030;2023-01-04T06:40:04;100620.75;;;10.17;73.73
32081;BME280;18593;51.426;7.030;2023-01-04T06:42:33;100625.88;;;10.19;73.66
32081;BME280;18593;51.426;7.030;2023-01-04T06:45:13;100624.66;;;10.21;74.00
32081;BME280;18593;51.426;7.030;2023-01-04T06:47:41;100624.84;;;10.20;73.59
32081;BME280;18593;51.426;7.030;2023-01-04T06:50:09;100620.16;;;10.15;73.97
32081;BME280;18593;51.426;7.030;2023-01-04T06:52:36;100622.81;;;10.15;74.10
32081;BME280;18593;51.426;7.030;2023-01-04T06:55:08;100632.63;;;10.15;74.21
32081;BME280;18593;51.426;7.030;2023-01-04T06:57:36;100623.63;;;10.16;74.20
32081;BME280;18593;51.426;7.030;2023-01-04T07:00:06;100620.75;;;10.17;74.31
32081;BME280;18593;51.426;7.030;2023-01-04T07:02:34;100617.88;;;10.19;74.35
32081;BME280;18593;51.426;7.030;2023-01-04T07:05:02;100628.13;;;10.22;74.30
32081;BME280;18593;51.426;7.030;2023-01-04T07:07:31;100635.09;;;10.23;74.11
32081;BME280;18593;51.426;7.030;2023-01-04T07:09:58;100621.59;;;10.24;74.20
32081;BME280;18593;51.426;7.030;2023-01-04T07:12:25;100614.22;;;10.26;74.06
32081;BME280;18593;51.426;7.030;2023-01-04T07:14:54;100609.91;;;10.25;74.16
32081;BME280;18593;51.426;7.030;2023-01-04T07:17:21;100626.72;;;10.26;73.90
32081;BME280;18593;51.426;7.030;2023-01-04T07:19:49;100621.19;;;10.27;74.01
32081;BME280;18593;51.426;7.030;2023-01-04T07:22:16;100625.69;;;10.27;73.97
32081;BME280;18593;51.426;7.030;2023-01-04T07:24:44;100618.53;;;10.27;74.25
32081;BME280;18593;51.426;7.030;2023-01-04T07:27:11;100616.69;;;10.28;74.52
32081;BME280;18593;51.426;7.030;2023-01-04T07:29:38;100634.13;;;10.30;74.15
32081;BME280;18593;51.426;7.030;2023-01-04T07:32:10;100628.78;;;10.30;74.35
32081;BME280;18593;51.426;7.030;2023-01-04T07:34:37;100626.13;;;10.30;74.29
32081;BME280;18593;51.426;7.030;2023-01-04T07:37:07;100639.84;;;10.34;74.20
32081;BME280;18593;51.426;7.030;2023-01-04T07:39:35;100637.81;;;10.36;74.48
32081;BME280;18593;51.426;7.030;2023-01-04T07:42:02;100640.06;;;10.32;74.58
32081;BME280;18593;51.426;7.030;2023-01-04T07:44:30;100647.84;;;10.34;74.31
32081;BME280;18593;51.426;7.030;2023-01-04T07:46:57;100636.16;;;10.35;74.64
32081;BME280;18593;51.426;7.030;2023-01-04T07:49:26;100629.00;;;10.36;74.38
32081;BME280;18593;51.426;7.030;2023-01-04T07:51:53;100607.03;;;10.34;74.58
32081;BME280;18593;51.426;7.030;2023-01-04T07:54:21;100610.94;;;10.38;74.84
32081;BME280;18593;51.426;7.030;2023-01-04T07:56:48;100618.94;;;10.38;74.73
32081;BME280;18593;51.426;7.030;2023-01-04T07:59:17;100610.94;;;10.38;74.61
32081;BME280;18593;51.426;7.030;2023-01-04T08:01:46;100597.38;;;10.39;74.52
32081;BME280;18593;51.426;7.030;2023-01-04T08:04:14;100612.38;;;10.40;74.63
32081;BME280;18593;51.426;7.030;2023-01-04T08:06:43;100604.97;;;10.42;74.36
32081;BME280;18593;51.426;7.030;2023-01-04T08:09:12;100597.59;;;10.44;74.53
32081;BME280;18593;51.426;7.030;2023-01-04T08:11:39;100607.03;;;10.47;74.30
32081;BME280;18593;51.426;7.030;2023-01-04T08:14:06;100602.50;;;10.47;74.22
32081;BME280;18593;51.426;7.030;2023-01-04T08:16:36;100589.59;;;10.51;74.20
32081;BME280;18593;51.426;7.030;2023-01-04T08:19:06;100605.16;;;10.54;74.23
32081;BME280;18593;51.426;7.030;2023-01-04T08:21:36;100609.50;;;10.55;74.22
32081;BME280;18593;51.426;7.030;2023-01-04T08:24:06;100605.16;;;10.54;74.14
32081;BME280;18593;51.426;7.030;2023-01-04T08:26:33;100611.94;;;10.56;74.06
32081;BME280;18593;51.426;7.030;2023-01-04T08:29:00;100590.19;;;10.53;74.41
32081;BME280;18593;51.426;7.030;2023-01-04T08:31:30;100586.31;;;10.55;74.25
32081;BME280;18593;51.426;7.030;2023-01-04T08:34:02;100582.81;;;10.55;74.11
32081;BME280;18593;51.426;7.030;2023-01-04T08:36:31;100574.00;;;10.54;74.21
32081;BME280;18593;51.426;7.030;2023-01-04T08:39:01;100556.75;;;10.57;74.00
32081;BME280;18593;51.426;7.030;2023-01-04T08:41:33;100559.00;;;10.60;74.30
32081;BME280;18593;51.426;7.030;2023-01-04T08:44:15;100552.03;;;10.59;74.03
32081;BME280;18593;51.426;7.030;2023-01-04T08:46:46;100555.91;;;10.63;73.88
32081;BME280;18593;51.426;7.030;2023-01-04T08:49:14;100547.72;;;10.65;73.98
32081;BME280;18593;51.426;7.030;2023-01-04T08:51:44;100551.78;;;10.67;73.99
32081;BME280;18593;51.426;7.030;2023-01-04T08:54:15;100546.47;;;10.67;73.81
32081;BME280;18593;51.426;7.030;2023-01-04T08:56:44;100558.75;;;10.68;74.08
32081;BME280;18593;51.426;7.030;2023-01-04T08:59:12;100557.94;;;10.68;73.79
32081;BME280;18593;51.426;7.030;2023-01-04T09:01:39;100561.84;;;10.72;74.00
32081;BME280;18593;51.426;7.030;2023-01-04T09:04:08;100557.75;;;10.69;74.15
32081;BME280;18593;51.426;7.030;2023-01-04T09:06:36;100556.50;;;10.72;73.93
32081;BME280;18593;51.426;7.030;2023-01-04T09:09:04;100545.63;;;10.73;74.07
32081;BME280;18593;51.426;7.030;2023-01-04T09:11:32;100537.19;;;10.76;74.09
32081;BME280;18593;51.426;7.030;2023-01-04T09:14:01;100546.03;;;10.77;74.26
32081;BME280;18593;51.426;7.030;2023-01-04T09:16:28;100561.22;;;10.76;74.11
32081;BME280;18593;51.426;7.030;2023-01-04T09:18:58;100545.22;;;10.76;74.13
32081;BME280;18593;51.426;7.030;2023-01-04T09:21:25;100549.31;;;10.79;74.11
32081;BME280;18593;51.426;7.030;2023-01-04T09:23:52;100551.75;;;10.80;74.41
32081;BME280;18593;51.426;7.030;2023-01-04T09:26:22;100539.66;;;10.78;74.44
32081;BME280;18593;51.426;7.030;2023-01-04T09:28:51;100544.78;;;10.79;74.59
32081;BME280;18593;51.426;7.030;2023-01-04T09:31:21;100539.47;;;10.79;74.68
32081;BME280;18593;51.426;7.030;2023-01-04T09:33:49;100538.19;;;10.82;74.45
32081;BME280;18593;51.426;7.030;2023-01-04T09:36:17;100549.31;;;10.79;74.45
32081;BME280;18593;51.426;7.030;2023-01-04T09:38:45;100543.53;;;10.82;74.56
32081;BME280;18593;51.426;7.030;2023-01-04T09:41:21;100553.19;;;10.83;74.87
32081;BME280;18593;51.426;7.030;2023-01-04T09:43:52;100532.69;;;10.83;75.04
32081;BME280;18593;51.426;7.030;2023-01-04T09:46:30;100541.09;;;10.80;75.18
32081;BME280;18593;51.426;7.030;2023-01-04T09:49:14;100562.22;;;10.82;75.36
32081;BME280;18593;51.426;7.030;2023-01-04T09:51:50;100558.13;;;10.79;75.37
32081;BME280;18593;51.426;7.030;2023-01-04T09:54:21;100566.53;;;10.76;75.66
32081;BME280;18593;51.426;7.030;2023-01-04T09:56:52;100569.63;;;10.80;75.46
32081;BME280;18593;51.426;7.030;2023-01-04T09:59:25;100556.28;;;10.80;75.24
32081;BME280;18593;51.426;7.030;2023-01-04T10:02:00;100543.34;;;10.77;75.78
32081;BME280;18593;51.426;7.030;2023-01-04T10:04:40;100535.75;;;10.80;75.56
32081;BME280;18593;51.426;7.030;2023-01-04T10:07:17;100556.88;;;10.82;75.54
32081;BME280;18593;51.426;7.030;2023-01-04T10:09:47;100560.00;;;10.79;75.50
32081;BME280;18593;51.426;7.030;2023-01-04T10:12:30;100566.50;;;10.83;75.67
32081;BME280;18593;51.426;7.030;2023-01-04T10:15:19;100547.03;;;10.82;75.88
32081;BME280;18593;51.426;7.030;2023-01-04T10:18:13;100543.13;;;10.85;75.69
32081;BME280;18593;51.426;7.030;2023-01-04T10:23:50;100545.16;;;10.83;76.01
32081;BME280;18593;51.426;7.030;2023-01-04T10:26:24;100546.84;;;10.84;75.75
32081;BME280;18593;51.426;7.030;2023-01-04T10:29:35;100544.75;;;10.86;76.12
32081;BME280;18593;51.426;7.030;2023-01-04T10:32:17;100535.13;;;10.85;76.00
32081;BME280;18593;51.426;7.030;2023-01-04T10:34:47;100542.09;;;10.86;76.17
32081;BME280;18593;51.426;7.030;2023-01-04T10:37:19;100539.19;;;10.88;76.33
32081;BME280;18593;51.426;7.030;2023-01-04T10:39:51;100525.44;;;10.91;76.16
32081;BME280;18593;51.426;7.030;2023-01-04T10:42:32;100526.50;;;10.90;76.25
32081;BME280;18593;51.426;7.030;2023-01-04T10:45:10;100516.22;;;10.87;76.22
32081;BME280;18593;51.426;7.030;2023-01-04T10:47:52;100515.63;;;10.85;76.35
32081;BME280;18593;51.426;7.030;2023-01-04T10:50:32;100515.00;;;10.82;76.50
32081;BME280;18593;51.426;7.030;2023-01-04T10:53:04;100516.66;;;10.83;76.53
32081;BME280;18593;51.426;7.030;2023-01-04T10:55:41;100516.03;;;10.81;76.78
32081;BME280;18593;51.426;7.030;2023-01-04T10:58:15;100517.69;;;10.82;76.69
32081;BME280;18593;51.426;7.030;2023-01-04T11:00:46;100507.41;;;10.86;76.80
32081;BME280;18593;51.426;7.030;2023-01-04T11:03:20;100505.78;;;10.85;76.97
32081;BME280;18593;51.426;7.030;2023-01-04T11:05:58;100501.44;;;10.91;76.66
32081;BME280;18593;51.426;7.030;2023-01-04T11:08:35;100495.06;;;10.92;76.81
32081;BME280;18593;51.426;7.030;2023-01-04T11:11:08;100501.63;;;10.96;76.84
32081;BME280;18593;51.426;7.030;2023-01-04T11:13:36;100493.84;;;10.94;76.57
32081;BME280;18593;51.426;7.030;2023-01-04T11:16:06;100488.50;;;10.94;76.55
32081;BME280;18593;51.426;7.030;2023-01-04T11:18:36;100487.22;;;10.97;76.44
32081;BME280;18593;51.426;7.030;2023-01-04T11:21:10;100485.38;;;10.97;76.58
32081;BME280;18593;51.426;7.030;2023-01-04T11:23:39;100476.16;;;11.00;76.47
32081;BME280;18593;51.426;7.030;2023-01-04T11:26:11;100476.97;;;11.00;76.76
32081;BME280;18593;51.426;7.030;2023-01-04T11:28:45;100472.44;;;11.01;76.73
32081;BME280;18593;51.426;7.030;2023-01-04T11:31:20;100471.41;;;11.02;76.70
32081;BME280;18593;51.426;7.030;2023-01-04T11:33:53;100455.19;;;11.03;76.90
32081;BME280;18593;51.426;7.030;2023-01-04T11:36:36;100467.91;;;11.01;76.84
32081;BME280;18593;51.426;7.030;2023-01-04T11:39:05;100472.03;;;11.04;76.73
32081;BME280;18593;51.426;7.030;2023-01-04T11:41:33;100461.34;;;11.04;76.81
32081;BME280;18593;51.426;7.030;2023-01-04T11:44:02;100470.97;;;11.05;76.77
32081;BME280;18593;51.426;7.030;2023-01-04T11:46:32;100466.69;;;11.04;76.74
32081;BME280;18593;51.426;7.030;2023-01-04T11:49:00;100442.44;;;11.05;76.92
32081;BME280;18593;51.426;7.030;2023-01-04T11:51:36;100443.47;;;11.04;76.74
32081;BME280;18593;51.426;7.030;2023-01-04T11:54:18;100443.25;;;11.06;76.77
32081;BME280;18593;51.426;7.030;2023-01-04T11:57:00;100451.88;;;11.08;76.65
32081;BME280;18593;51.426;7.030;2023-01-04T11:59:28;100438.53;;;11.08;76.78
32081;BME280;18593;51.426;7.030;2023-01-04T12:02:21;100442.84;;;11.09;76.92
32081;BME280;18593;51.426;7.030;2023-01-04T12:04:51;100445.28;;;11.11;76.72
32081;BME280;18593;51.426;7.030;2023-01-04T12:07:30;100430.09;;;11.11;76.82
32081;BME280;18593;51.426;7.030;2023-01-04T12:10:00;100448.34;;;11.14;76.90
32081;BME280;18593;51.426;7.030;2023-01-04T12:12:31;100439.31;;;11.15;77.00
32081;BME280;18593;51.426;7.030;2023-01-04T12:15:04;100441.16;;;11.15;76.93
32081;BME280;18593;51.426;7.030;2023-01-04T12:17:41;100451.84;;;11.15;77.10
32081;BME280;18593;51.426;7.030;2023-01-04T12:20:15;100446.50;;;11.15;77.12
32081;BME280;18593;51.426;7.030;2023-01-04T12:22:45;100448.34;;;11.14;77.49
32081;BME280;18593;51.426;7.030;2023-01-04T12:25:31;100445.47;;;11.16;77.51
32081;BME280;18593;51.426;7.030;2023-01-04T12:28:00;100438.88;;;11.18;77.48
32081;BME280;18593;51.426;7.030;2023-01-04T12:30:37;100444.88;;;11.14;77.86
32081;BME280;18593;51.426;7.030;2023-01-04T12:33:38;100449.97;;;11.15;78.06
32081;BME280;18593;51.426;7.030;2023-01-04T12:36:07;100442.78;;;11.16;77.87
32081;BME280;18593;51.426;7.030;2023-01-04T12:42:15;100424.03;;;11.22;77.92
32081;BME280;18593;51.426;7.030;2023-01-04T12:45:20;100430.41;;;11.21;78.13
32081;BME280;18593;51.426;7.030;2023-01-04T12:47:52;100423.03;;;11.23;77.88
32081;BME280;18593;51.426;7.030;2023-01-04T12:51:20;100415.19;;;11.28;78.07
32081;BME280;18593;51.426;7.030;2023-01-04T12:53:53;100405.31;;;11.29;77.89
32081;BME280;18593;51.426;7.030;2023-01-04T12:56:22;100411.47;;;11.29;77.92
